Time,TemperatureF,DewpointF,PressureIn,WindDirection,WindDirectionDegrees,WindSpeedMPH,WindSpeedGustMPH,Humidity,HourlyPrecipIn,Conditions,Clouds,dailyrainin,SoftwareType,DateUTC
2013-04-09 00:52:00,36.0,36.0,-100.00,ENE,60,26.0,37.0,99,0.00,,,0.00,,2013-04-09 05:52:00,
2013-04-09 01:02:00,36.0,36.0,-100.00,NE,50,27.0,35.0,99,0.00,,,0.00,,2013-04-09 06:02:00,
2013-04-09 01:12:00,36.0,36.0,-100.00,ENE,60,21.0,33.0,99,0.00,,,0.00,,2013-04-09 06:12:00,
2013-04-09 01:42:00,35.0,34.0,-100.00,NE,45,25.0,31.0,99,0.00,,,0.00,,2013-04-09 06:42:00,
2013-04-09 01:52:00,34.0,34.0,-100.00,NE,45,26.0,37.0,99,0.00,,,0.00,,2013-04-09 06:52:00,
2013-04-09 02:02:00,34.0,34.0,-100.00,NE,40,27.0,38.0,99,0.00,,,0.00,,2013-04-09 07:02:00,
2013-04-09 03:42:00,33.0,32.0,-100.00,NE,45,29.0,35.0,99,0.00,,,0.00,,2013-04-09 08:42:00,
2013-04-09 03:52:00,33.0,32.0,-100.00,NE,45,24.0,37.0,99,0.00,,,0.00,,2013-04-09 08:52:00,
2013-04-09 04:02:00,33.0,32.0,-100.00,NE,55,26.0,34.0,99,0.00,,,0.00,,2013-04-09 09:02:00,
2013-04-09 04:12:00,32.0,32.0,-100.00,NE,50,29.0,38.0,99,0.00,,,0.00,,2013-04-09 09:12:00,
2013-04-09 04:22:00,32.0,32.0,-100.00,ENE,60,26.0,40.0,99,0.00,,,0.00,,2013-04-09 09:22:00,
2013-04-09 05:52:00,31.0,30.0,-100.00,NE,50,29.0,40.0,99,0.03,,,0.03,,2013-04-09 10:52:00,
2013-04-09 06:02:00,31.0,30.0,-100.00,NE,50,25.0,37.0,99,0.03,,,0.03,,2013-04-09 11:02:00,
2013-04-09 06:12:00,31.0,30.0,-100.00,NE,50,26.0,33.0,99,0.05,,,0.04,,2013-04-09 11:12:00,
2013-04-09 06:22:00,31.0,30.0,-100.00,NE,45,22.0,32.0,99,0.03,,,0.04,,2013-04-09 11:22:00,
2013-04-09 06:32:00,31.0,30.0,-100.00,NE,55,24.0,29.0,99,0.03,,,0.05,,2013-04-09 11:32:00,
2013-04-09 06:42:00,31.0,30.0,-100.00,NE,45,21.0,27.0,99,0.05,,,0.06,,2013-04-09 11:42:00,
2013-04-09 09:12:00,31.0,30.0,-100.00,NE,45,4.0,5.0,99,0.02,,,0.13,,2013-04-09 14:12:00,
2013-04-09 09:22:00,30.0,30.0,-100.00,NE,45,3.0,4.0,99,0.02,,,0.13,,2013-04-09 14:22:00,
2013-04-09 09:32:00,30.0,30.0,-100.00,NE,50,3.0,4.0,99,0.01,,,0.14,,2013-04-09 14:32:00,
2013-04-09 09:52:00,29.0,28.0,-100.00,NE,40,2.0,4.0,99,0.00,,,0.14,,2013-04-09 14:52:00,
2013-04-09 10:02:00,29.0,28.0,-100.00,NE,50,2.0,4.0,99,0.00,,,0.14,,2013-04-09 15:02:00,
2013-04-09 10:12:00,29.0,28.0,-100.00,ENE,60,2.0,4.0,99,0.00,,,0.14,,2013-04-09 15:12:00,
2013-04-09 11:03:00,27.0,27.0,-100.00,NE,40,2.0,3.0,99,0.00,,,0.14,,2013-04-09 16:03:00,
2013-04-09 11:33:00,27.0,27.0,-100.00,NE,40,2.0,3.0,99,0.00,,,0.14,,2013-04-09 16:33:00,
2013-04-09 11:42:00,27.0,27.0,-100.00,NNE,25,2.0,3.0,99,0.00,,,0.14,,2013-04-09 16:42:00,
2013-04-09 11:52:00,27.0,27.0,-100.00,NE,35,2.0,3.0,99,0.00,,,0.14,,2013-04-09 16:52:00,
2013-04-09 12:02:00,27.0,27.0,-100.00,NNE,30,2.0,2.0,99,0.00,,,0.14,,2013-04-09 17:02:00,
2013-04-09 12:53:00,26.0,25.0,-100.00,NNE,25,2.0,2.0,99,0.00,,,0.14,,2013-04-09 17:53:00,
2013-04-09 13:02:00,25.0,25.0,-100.00,NE,35,2.0,2.0,99,0.00,,,0.14,,2013-04-09 18:02:00,
2013-04-09 13:12:00,25.0,25.0,-100.00,NE,35,2.0,2.0,99,0.00,,,0.14,,2013-04-09 18:12:00,
2013-04-09 13:22:00,25.0,25.0,-100.00,NE,35,1.0,2.0,99,0.00,,,0.14,,2013-04-09 18:22:00,
2013-04-09 13:32:00,25.0,25.0,-100.00,NE,35,2.0,2.0,99,0.00,,,0.14,,2013-04-09 18:32:00,
2013-04-09 13:43:00,26.0,25.0,-100.00,NE,35,2.0,2.0,99,0.00,,,0.14,,2013-04-09 18:43:00,
2013-04-09 13:52:00,25.0,25.0,-100.00,NNE,30,2.0,2.0,99,0.00,,,0.14,,2013-04-09 18:52:00,
2013-04-09 14:02:00,26.0,25.0,-100.00,NNE,30,2.0,2.0,99,0.00,,,0.14,,2013-04-09 19:02:00,
2013-04-09 14:12:00,26.0,25.0,-100.00,NNE,30,2.0,2.0,99,0.00,,,0.14,,2013-04-09 19:12:00,
2013-04-09 14:22:00,26.0,25.0,-100.00,NNE,30,2.0,3.0,99,0.00,,,0.14,,2013-04-09 19:22:00,
2013-04-09 14:52:00,26.0,25.0,-100.00,NNE,25,2.0,2.0,99,0.00,,,0.14,,2013-04-09 19:52:00,
2013-04-09 15:02:00,26.0,25.0,-100.00,NNE,30,2.0,2.0,99,0.00,,,0.14,,2013-04-09 20:02:00,
2013-04-09 15:12:00,26.0,25.0,-100.00,NNE,30,1.0,2.0,99,0.00,,,0.14,,2013-04-09 20:12:00,
2013-04-09 15:22:00,26.0,25.0,-100.00,NNE,25,1.0,2.0,99,0.00,,,0.14,,2013-04-09 20:22:00,
2013-04-09 16:02:00,26.0,25.0,-100.00,NNE,30,1.0,1.0,99,0.00,,,0.14,,2013-04-09 21:02:00,
2013-04-09 16:13:00,26.0,25.0,-100.00,NNE,25,1.0,2.0,99,0.00,,,0.14,,2013-04-09 21:13:00,
2013-04-09 16:22:00,26.0,25.0,-100.00,NNE,25,1.0,2.0,99,0.00,,,0.14,,2013-04-09 21:22:00,
2013-04-09 16:33:00,26.0,25.0,-100.00,NNE,20,1.0,2.0,99,0.03,,,0.14,,2013-04-09 21:33:00,
2013-04-09 16:42:00,26.0,25.0,-100.00,NNE,20,1.0,2.0,99,0.03,,,0.14,,2013-04-09 21:42:00,
2013-04-09 16:52:00,27.0,27.0,-100.00,NNE,30,1.0,2.0,99,0.01,,,0.14,,2013-04-09 21:52:00,
2013-04-09 17:23:00,27.0,27.0,-100.00,NE,45,1.0,1.0,99,0.02,,,0.15,,2013-04-09 22:23:00,
2013-04-09 18:42:00,29.0,28.0,-100.00,NNE,30,1.0,1.0,99,0.03,,,0.17,,2013-04-09 23:42:00,
2013-04-09 18:52:00,29.0,28.0,-100.00,NE,45,1.0,1.0,99,0.02,,,0.17,,2013-04-09 23:52:00,
2013-04-09 19:03:00,29.0,28.0,-100.00,NNE,30,1.0,1.0,99,0.02,,,0.18,,2013-04-10 00:03:00,
2013-04-09 19:12:00,29.0,28.0,-100.00,NNE,30,1.0,1.0,99,0.02,,,0.18,,2013-04-10 00:12:00,
2013-04-09 19:22:00,29.0,28.0,-100.00,NE,35,1.0,1.0,99,0.02,,,0.18,,2013-04-10 00:22:00,
2013-04-09 20:12:00,29.0,28.0,-100.00,NNE,30,1.0,1.0,99,0.02,,,0.19,,2013-04-10 01:12:00,
2013-04-09 20:23:00,29.0,28.0,-100.00,NNE,15,1.0,1.0,99,0.01,,,0.19,,2013-04-10 01:23:00,
2013-04-09 20:32:00,29.0,28.0,-100.00,NE,45,0.0,1.0,99,0.01,,,0.19,,2013-04-10 01:32:00,
2013-04-09 21:02:00,30.0,30.0,-100.00,NE,35,1.0,1.0,99,0.04,,,0.20,,2013-04-10 02:02:00,
2013-04-09 21:12:00,30.0,30.0,-100.00,NNE,30,1.0,1.0,99,0.02,,,0.20,,2013-04-10 02:12:00,
2013-04-09 21:22:00,30.0,30.0,-100.00,NE,50,1.0,1.0,99,0.01,,,0.21,,2013-04-10 02:22:00,
2013-04-09 21:32:00,30.0,30.0,-100.00,NE,45,1.0,1.0,99,0.03,,,0.21,,2013-04-10 02:32:00,
2013-04-09 21:42:00,31.0,30.0,-100.00,NNE,20,1.0,1.0,99,0.02,,,0.21,,2013-04-10 02:42:00,
2013-04-09 21:52:00,31.0,30.0,-100.00,NE,40,1.0,1.0,99,0.01,,,0.22,,2013-04-10 02:52:00,
2013-04-09 22:02:00,31.0,30.0,-100.00,NE,40,1.0,1.0,99,0.01,,,0.22,,2013-04-10 03:02:00,
2013-04-09 22:12:00,31.0,30.0,-100.00,NNE,30,1.0,1.0,99,0.03,,,0.22,,2013-04-10 03:12:00,
2013-04-09 22:22:00,31.0,30.0,-100.00,ENE,75,1.0,1.0,99,0.01,,,0.23,,2013-04-10 03:22:00,
2013-04-09 22:32:00,31.0,30.0,-100.00,NE,45,0.0,1.0,99,0.01,,,0.23,,2013-04-10 03:32:00,
2013-04-09 22:43:00,31.0,30.0,-100.00,NE,35,0.0,1.0,99,0.00,,,0.23,,2013-04-10 03:43:00,
2013-04-09 22:52:00,31.0,30.0,-100.00,NNE,25,0.0,1.0,99,0.02,,,0.23,,2013-04-10 03:52:00,
2013-04-09 23:03:00,31.0,30.0,-100.00,NNE,30,0.0,0.0,99,0.01,,,0.23,,2013-04-10 04:03:00,
2013-04-09 23:13:00,31.0,30.0,-100.00,NNE,15,0.0,0.0,99,0.01,,,0.23,,2013-04-10 04:13:00,
2013-04-09 23:23:00,31.0,30.0,-100.00,NE,55,0.0,0.0,99,0.01,,,0.23,,2013-04-10 04:23:00,
2013-04-09 23:33:00,31.0,30.0,-100.00,NE,55,0.0,0.0,99,0.01,,,0.23,,2013-04-10 04:33:00,
2013-04-09 23:42:00,31.0,30.0,-100.00,NE,55,0.0,0.0,99,0.01,,,0.23,,2013-04-10 04:42:00,
2013-04-09 23:52:00,31.0,30.0,-100.00,NE,55,0.0,0.0,99,0.01,,,0.23,,2013-04-10 04:52:00,